createdAt,value
2023-02-14T00:00:01.930Z,4.48
2023-02-14T00:05:02.232Z,4.17
2023-02-14T00:10:01.358Z,4.17
2023-02-14T00:15:01.440Z,4.04
2023-02-14T00:20:01.588Z,4.19
2023-02-14T00:25:01.908Z,4.66
2023-02-14T00:30:02.335Z,4.98
2023-02-14T00:35:02.150Z,5.13
2023-02-14T00:40:02.169Z,5.11
2023-02-14T00:45:01.398Z,5.17
2023-02-14T00:50:01.962Z,5.15
2023-02-14T00:55:01.903Z,5.16
2023-02-14T01:00:02.010Z,5.16
2023-02-14T01:05:01.493Z,5.09
2023-02-14T01:10:01.948Z,5.02
2023-02-14T01:15:02.041Z,4.98
2023-02-14T01:20:02.295Z,5
2023-02-14T01:25:02.290Z,4.98
2023-02-14T01:30:01.495Z,5.04
2023-02-14T01:35:01.978Z,5
2023-02-14T01:40:01.437Z,4.88
2023-02-14T01:45:01.376Z,4.88
2023-02-14T01:50:02.080Z,4.8
2023-02-14T01:55:01.800Z,4.78
2023-02-14T02:00:02.155Z,4.79
2023-02-14T02:05:01.551Z,4.79
2023-02-14T02:10:01.347Z,4.8
2023-02-14T02:15:01.795Z,4.8
2023-02-14T02:20:01.685Z,4.79
2023-02-14T02:25:01.941Z,4.82
2023-02-14T02:30:02.235Z,4.83
2023-02-14T02:35:01.580Z,4.8
2023-02-14T02:40:02.167Z,4.79
2023-02-14T02:45:02.183Z,4.86
2023-02-14T02:50:01.351Z,4.8
2023-02-14T02:55:01.594Z,4.73
2023-02-14T03:00:02.007Z,4.77
2023-02-14T03:05:01.436Z,4.74
2023-02-14T03:10:01.517Z,4.77
2023-02-14T03:15:01.727Z,4.71
2023-02-14T03:20:01.458Z,4.67
2023-02-14T03:25:01.739Z,4.63
2023-02-14T03:30:01.343Z,4.54
2023-02-14T03:35:02.145Z,4.5
2023-02-14T03:40:01.835Z,4.49
2023-02-14T03:45:02.048Z,4.45
2023-02-14T03:50:02.240Z,4.41
2023-02-14T03:55:02.175Z,4.41
2023-02-14T04:00:02.282Z,4.39
2023-02-14T04:05:02.132Z,4.34
2023-02-14T04:10:01.407Z,4.34
2023-02-14T04:15:01.715Z,4.34
2023-02-14T04:20:02.258Z,4.23
2023-02-14T04:25:01.569Z,4.21
2023-02-14T04:30:01.756Z,4.29
2023-02-14T04:35:01.818Z,4.2
2023-02-14T04:40:02.107Z,4.16
2023-02-14T04:45:04.187Z,4.12
2023-02-14T04:50:01.875Z,4.08
2023-02-14T04:55:01.538Z,4
2023-02-14T05:00:01.982Z,4
2023-02-14T05:05:02.200Z,3.9
2023-02-14T05:10:01.389Z,3.86
2023-02-14T05:15:01.512Z,3.84
2023-02-14T05:20:01.752Z,3.85
2023-02-14T05:25:01.844Z,3.8
2023-02-14T05:30:01.772Z,3.76
2023-02-14T05:35:01.815Z,3.75
2023-02-14T05:40:01.843Z,3.71
2023-02-14T05:45:02.095Z,3.68
2023-02-14T05:50:01.305Z,3.62
2023-02-14T05:55:01.308Z,3.61
2023-02-14T06:00:02.004Z,3.69
2023-02-14T06:05:01.844Z,3.65
2023-02-14T06:10:01.909Z,3.6
2023-02-14T06:15:02.098Z,3.59
2023-02-14T06:20:02.272Z,3.57
2023-02-14T06:25:01.737Z,3.52
2023-02-14T06:30:01.848Z,3.4
2023-02-14T06:35:01.586Z,3.41
2023-02-14T06:40:01.710Z,3.39
2023-02-14T06:45:01.364Z,3.36
2023-02-14T06:50:01.685Z,3.36
2023-02-14T06:55:01.532Z,3.35
2023-02-14T07:00:01.337Z,3.33
2023-02-14T07:05:02.108Z,3.29
2023-02-14T07:10:02.251Z,3.28
2023-02-14T07:15:02.127Z,3.35
2023-02-14T07:20:02.244Z,3.29
2023-02-14T07:25:02.141Z,3.32
2023-02-14T07:30:01.993Z,3.32
2023-02-14T07:35:02.084Z,3.42
2023-02-14T07:40:01.947Z,3.49
2023-02-14T07:45:09.393Z,3.59
2023-02-14T07:50:01.836Z,3.78
2023-02-14T07:55:01.890Z,3.95
2023-02-14T08:00:01.861Z,4.09
2023-02-14T08:05:02.163Z,4.2
2023-02-14T08:10:02.089Z,4.36
2023-02-14T08:15:02.015Z,4.52
2023-02-14T08:20:02.086Z,4.67
2023-02-14T08:25:01.903Z,4.82
2023-02-14T08:30:02.363Z,5.02
2023-02-14T08:35:01.809Z,5.08
2023-02-14T08:40:01.914Z,5.23
2023-02-14T08:45:01.824Z,5.21
2023-02-14T08:50:01.985Z,5.39
2023-02-14T08:55:01.988Z,5.54
2023-02-14T09:00:02.176Z,5.59
2023-02-14T09:05:01.601Z,5.68
2023-02-14T09:10:01.956Z,5.63
2023-02-14T09:15:02.225Z,5.62
2023-02-14T09:20:02.215Z,5.87
2023-02-14T09:25:02.270Z,5.94
2023-02-14T09:30:02.381Z,6.1
2023-02-14T09:35:01.335Z,6.28
2023-02-14T09:40:01.579Z,6.44
2023-02-14T09:45:01.704Z,6.54
2023-02-14T09:50:01.966Z,6.52
2023-02-14T09:55:01.841Z,6.65
2023-02-14T10:00:01.747Z,6.69
2023-02-14T10:05:02.050Z,6.79
2023-02-14T10:10:01.291Z,6.96
2023-02-14T10:15:01.439Z,7.02
2023-02-14T10:20:01.686Z,7.19
2023-02-14T10:25:01.978Z,7.27
2023-02-14T10:30:02.094Z,7.42
2023-02-14T10:35:02.171Z,7.7
2023-02-14T10:40:01.682Z,7.94
2023-02-14T10:45:02.076Z,8.15
2023-02-14T10:50:02.053Z,8.26
2023-02-14T10:55:02.088Z,8.26
2023-02-14T11:00:02.058Z,8.24
2023-02-14T11:05:01.947Z,8.29
2023-02-14T11:10:02.099Z,8.62
2023-02-14T11:15:02.155Z,8.61
2023-02-14T11:20:02.188Z,8.82
2023-02-14T11:25:04.471Z,8.83
2023-02-14T11:30:02.162Z,8.95
2023-02-14T11:35:01.878Z,9.22
2023-02-14T11:40:01.910Z,8.98
2023-02-14T11:45:01.769Z,9.1
2023-02-14T11:50:02.005Z,9.11
2023-02-14T11:55:02.226Z,9.22
2023-02-14T12:00:02.016Z,9.32
2023-02-14T12:05:02.176Z,9.62
2023-02-14T12:10:01.302Z,9.55
2023-02-14T12:15:02.170Z,9.54
2023-02-14T12:20:02.254Z,9.76
2023-02-14T12:25:01.943Z,9.66
2023-02-14T12:30:02.190Z,9.91
2023-02-14T12:35:01.442Z,9.91
2023-02-14T12:40:01.544Z,9.79
2023-02-14T12:45:01.723Z,9.9
2023-02-14T12:50:01.998Z,9.88
2023-02-14T12:55:02.010Z,9.77
2023-02-14T13:00:02.135Z,9.88
2023-02-14T13:05:01.688Z,9.9
2023-02-14T13:10:01.376Z,10
2023-02-14T13:15:01.539Z,9.98
2023-02-14T13:20:01.689Z,9.99
2023-02-14T13:25:01.887Z,10.07
2023-02-14T13:30:01.933Z,9.99
2023-02-14T13:35:02.028Z,10.11
2023-02-14T13:40:02.125Z,10.13
2023-02-14T13:45:02.122Z,10.2
2023-02-14T13:50:01.306Z,10.23
2023-02-14T13:55:01.548Z,10.23
2023-02-14T14:00:01.945Z,10.28
2023-02-14T14:05:02.060Z,10.5
2023-02-14T14:10:01.667Z,10.52
2023-02-14T14:15:01.961Z,10.52
2023-02-14T14:20:02.167Z,10.54
2023-02-14T14:25:01.713Z,10.52
2023-02-14T14:30:01.523Z,10.39
2023-02-14T14:35:01.728Z,10.41
2023-02-14T14:40:01.637Z,10.35
2023-02-14T14:45:02.047Z,10.31
2023-02-14T14:50:02.118Z,10.27
2023-02-14T14:55:02.226Z,10.28
2023-02-14T15:00:01.584Z,10.27
2023-02-14T15:05:02.002Z,10.24
2023-02-14T15:10:02.073Z,10.05
2023-02-14T15:15:02.041Z,9.93
2023-02-14T15:20:02.128Z,9.91
2023-02-14T15:25:01.289Z,9.91
2023-02-14T15:30:01.731Z,9.76
2023-02-14T15:35:01.967Z,9.75
2023-02-14T15:40:02.089Z,9.66
2023-02-14T15:45:02.029Z,9.64
2023-02-14T15:50:02.792Z,9.55
2023-02-14T15:55:01.921Z,9.44
2023-02-14T16:00:01.995Z,9.3
2023-02-14T16:05:02.078Z,9.22
2023-02-14T16:10:02.149Z,9.07
2023-02-14T16:15:02.031Z,9
2023-02-14T16:20:02.218Z,8.82
2023-02-14T16:25:02.200Z,8.67
2023-02-14T16:30:02.236Z,8.58
2023-02-14T16:35:01.507Z,8.45
2023-02-14T16:40:01.699Z,8.31
2023-02-14T16:45:01.547Z,8.17
2023-02-14T16:50:02.128Z,8.06
2023-02-14T16:55:01.329Z,7.92
2023-02-14T17:00:01.772Z,7.79
2023-02-14T17:05:02.034Z,7.72
2023-02-14T17:10:02.183Z,7.54
2023-02-14T17:15:02.205Z,7.42
2023-02-14T17:20:02.047Z,7.25
2023-02-14T17:25:02.005Z,7.12
2023-02-14T17:30:02.095Z,7.01
2023-02-14T17:35:02.154Z,6.94
2023-02-14T17:40:01.491Z,6.84
2023-02-14T17:45:01.747Z,6.87
2023-02-14T17:50:01.862Z,6.66
2023-02-14T17:55:01.746Z,6.51
2023-02-14T18:00:01.946Z,6.43
2023-02-14T18:05:01.930Z,6.35
2023-02-14T18:10:01.896Z,6.26
2023-02-14T18:15:01.954Z,6.26
2023-02-14T18:20:02.045Z,6.08
2023-02-14T18:25:02.138Z,5.99
2023-02-14T18:30:01.525Z,5.89
2023-02-14T18:35:01.590Z,5.79
2023-02-14T18:40:01.827Z,5.64
2023-02-14T18:45:02.003Z,5.62
2023-02-14T18:50:02.004Z,5.59
2023-02-14T18:55:01.900Z,5.49
2023-02-14T19:00:01.797Z,5.37
2023-02-14T19:05:02.098Z,5.27
2023-02-14T19:10:02.319Z,5.23
2023-02-14T19:15:02.117Z,5.15
2023-02-14T19:20:02.189Z,5.04
2023-02-14T19:25:01.594Z,4.9
2023-02-14T19:30:01.760Z,4.82
2023-02-14T19:35:01.419Z,4.76
2023-02-14T19:40:01.503Z,4.66
2023-02-14T19:45:01.594Z,4.57
2023-02-14T19:50:01.938Z,4.43
2023-02-14T19:55:02.147Z,4.34
2023-02-14T20:00:02.218Z,4.21
2023-02-14T20:05:01.299Z,4.14
2023-02-14T20:10:01.798Z,4.07
2023-02-14T20:15:02.108Z,4
2023-02-14T20:20:02.313Z,3.91
2023-02-14T20:25:01.293Z,3.84
2023-02-14T20:30:01.805Z,3.78
2023-02-14T20:35:02.004Z,3.69
2023-02-14T20:40:01.588Z,3.58
2023-02-14T20:45:01.403Z,3.5
2023-02-14T20:50:01.564Z,3.49
2023-02-14T20:55:01.783Z,3.49
2023-02-14T21:00:01.940Z,3.31
2023-02-14T21:05:02.253Z,3.25
2023-02-14T21:10:02.238Z,3.18
2023-02-14T21:15:02.169Z,3.12
2023-02-14T21:20:02.186Z,3.04
2023-02-14T21:25:01.650Z,2.95
2023-02-14T21:30:01.668Z,2.85
2023-02-14T21:35:01.621Z,2.84
2023-02-14T21:40:02.131Z,2.79
2023-02-14T21:45:01.323Z,2.75
2023-02-14T21:50:01.689Z,2.71
2023-02-14T21:55:01.974Z,2.71
2023-02-14T22:00:01.596Z,2.84
2023-02-14T22:05:02.251Z,2.62
2023-02-14T22:10:01.377Z,2.59
2023-02-14T22:15:01.517Z,2.55
2023-02-14T22:20:01.886Z,2.46
2023-02-14T22:25:01.970Z,2.41
2023-02-14T22:30:02.115Z,2.41
2023-02-14T22:35:02.151Z,2.36
2023-02-14T22:40:01.430Z,2.38
2023-02-14T22:45:01.736Z,2.31
2023-02-14T22:50:01.815Z,2.27
2023-02-14T22:55:01.868Z,2.23
2023-02-14T23:00:01.930Z,2.21
2023-02-14T23:05:01.606Z,2.2
2023-02-14T23:10:02.072Z,2.17
2023-02-14T23:15:02.013Z,2.16
2023-02-14T23:20:02.174Z,2.13
2023-02-14T23:25:01.268Z,2.29
2023-02-14T23:30:01.787Z,2.24
2023-02-14T23:35:01.828Z,2.13
2023-02-14T23:40:01.823Z,2.19
2023-02-14T23:45:01.383Z,2.13
2023-02-14T23:50:01.600Z,2.11
2023-02-14T23:55:01.776Z,2
